createdAt,value
2024-05-09T00:00:36.101Z,102850.16
2024-05-09T00:03:10.601Z,102853.69
2024-05-09T00:05:40.323Z,102845.78
2024-05-09T00:08:08.481Z,102851.94
2024-05-09T00:10:37.822Z,102852.88
2024-05-09T00:13:06.979Z,102841.47
2024-05-09T00:15:34.668Z,102841.56
2024-05-09T00:18:02.484Z,102842.44
2024-05-09T00:20:37.374Z,102839.84
2024-05-09T00:23:07.865Z,102842.50
2024-05-09T00:25:35.461Z,102835.53
2024-05-09T00:28:02.569Z,102840.00
2024-05-09T00:30:34.371Z,102834.75
2024-05-09T00:33:04.870Z,102829.50
2024-05-09T00:35:32.948Z,102835.69
2024-05-09T00:37:59.911Z,102833.97
2024-05-09T00:40:37.295Z,102824.28
2024-05-09T00:43:06.948Z,102826.97
2024-05-09T00:45:36.686Z,102827.88
2024-05-09T00:48:07.482Z,102820.84
2024-05-09T00:50:38.041Z,102821.75
2024-05-09T00:53:07.945Z,102820.91
2024-05-09T00:55:36.608Z,102815.66
2024-05-09T00:58:04.969Z,102821.88
2024-05-09T01:00:38.418Z,102825.41
2024-05-09T01:03:08.237Z,102828.06
2024-05-09T01:05:35.708Z,102825.47
2024-05-09T01:08:03.370Z,102830.72
2024-05-09T01:10:34.582Z,102828.16
2024-05-09T01:13:06.198Z,102818.53
2024-05-09T01:15:34.320Z,102812.44
2024-05-09T01:18:10.863Z,102812.44
2024-05-09T01:20:42.362Z,102822.09
2024-05-09T01:23:12.224Z,102817.72
2024-05-09T01:25:39.824Z,102815.94
2024-05-09T01:28:07.028Z,102815.09
2024-05-09T01:30:36.237Z,102816.00
2024-05-09T01:33:09.827Z,102809.00
2024-05-09T01:35:38.802Z,102808.09
2024-05-09T01:38:06.116Z,102805.47
2024-05-09T01:40:37.870Z,102797.63
2024-05-09T01:43:07.740Z,102808.19
2024-05-09T01:45:34.766Z,102815.25
2024-05-09T01:48:02.223Z,102809.13
2024-05-09T01:50:37.778Z,102803.03
2024-05-09T01:53:12.061Z,102798.63
2024-05-09T01:55:39.122Z,102801.28
2024-05-09T01:58:06.200Z,102800.44
2024-05-09T02:00:40.614Z,102806.56
2024-05-09T02:03:12.316Z,102806.56
2024-05-09T02:05:42.489Z,102804.81
2024-05-09T02:08:15.002Z,102801.31
2024-05-09T02:10:41.863Z,102801.38
2024-05-09T02:13:08.564Z,102799.63
2024-05-09T02:15:35.263Z,102800.50
2024-05-09T02:18:02.338Z,102799.66
2024-05-09T02:20:35.576Z,102806.69
2024-05-09T02:23:05.220Z,102801.44
2024-05-09T02:25:32.806Z,102796.19
2024-05-09T02:27:59.670Z,102806.75
2024-05-09T02:30:36.196Z,102798.84
2024-05-09T02:33:08.064Z,102811.16
2024-05-09T02:35:35.442Z,102799.78
2024-05-09T02:38:02.290Z,102804.16
2024-05-09T02:40:36.481Z,102798.06
2024-05-09T02:43:06.269Z,102791.88
2024-05-09T02:45:33.192Z,102797.16
2024-05-09T02:48:00.513Z,102795.41
2024-05-09T02:50:34.558Z,102798.94
2024-05-09T02:53:06.051Z,102795.44
2024-05-09T02:55:33.040Z,102784.03
2024-05-09T02:57:59.869Z,102786.69
2024-05-09T03:00:34.836Z,102788.44
2024-05-09T03:03:11.786Z,102788.44
2024-05-09T03:05:40.992Z,102784.91
2024-05-09T03:08:08.077Z,102776.16
2024-05-09T03:10:37.134Z,102790.22
2024-05-09T03:13:07.075Z,102780.56
2024-05-09T03:15:33.768Z,102780.56
2024-05-09T03:18:00.885Z,102782.34
2024-05-09T03:20:33.514Z,102782.34
2024-05-09T03:23:02.408Z,102780.63
2024-05-09T03:25:29.155Z,102780.63
2024-05-09T03:27:55.791Z,102776.25
2024-05-09T03:30:35.817Z,102778.00
2024-05-09T03:33:15.275Z,102781.53
2024-05-09T03:35:46.103Z,102775.38
2024-05-09T03:38:13.022Z,102776.28
2024-05-09T03:40:47.180Z,102776.28
2024-05-09T03:43:14.442Z,102778.94
2024-05-09T03:45:42.665Z,102775.47
2024-05-09T03:48:09.519Z,102777.19
2024-05-09T03:50:37.136Z,102775.44
2024-05-09T03:53:04.699Z,102772.78
2024-05-09T03:55:31.548Z,102776.34
2024-05-09T03:57:58.247Z,102778.09
2024-05-09T04:00:31.534Z,102773.69
2024-05-09T04:03:06.112Z,102783.34
2024-05-09T04:05:35.310Z,102781.59
2024-05-09T04:08:02.341Z,102776.31
2024-05-09T04:10:33.503Z,102778.94
2024-05-09T04:13:01.942Z,102779.81
2024-05-09T04:15:28.838Z,102786.84
2024-05-09T04:17:55.820Z,102785.97
2024-05-09T04:20:33.121Z,102779.84
2024-05-09T04:23:06.357Z,102776.31
2024-05-09T04:25:33.449Z,102779.81
2024-05-09T04:28:00.076Z,102773.66
2024-05-09T04:30:36.019Z,102778.91
2024-05-09T04:33:07.115Z,102784.16
2024-05-09T04:35:35.347Z,102786.81
2024-05-09T04:38:02.310Z,102785.03
2024-05-09T04:40:33.946Z,102779.75
2024-05-09T04:43:03.927Z,102782.38
2024-05-09T04:45:30.796Z,102789.34
2024-05-09T04:47:57.845Z,102790.97
2024-05-09T04:50:33.208Z,102797.00
2024-05-09T04:53:04.132Z,102794.34
2024-05-09T04:55:31.289Z,102796.97
2024-05-09T04:58:00.705Z,102789.97
2024-05-09T05:00:35.217Z,102795.25
2024-05-09T05:03:10.421Z,102790.84
2024-05-09T05:05:42.654Z,102789.06
2024-05-09T05:08:17.934Z,102806.59
2024-05-09T05:10:46.452Z,102803.03
2024-05-09T05:13:20.610Z,102807.28
2024-05-09T05:16:08.302Z,102814.25
2024-05-09T05:18:34.975Z,102805.34
2024-05-09T05:21:01.764Z,102814.97
2024-05-09T05:23:28.540Z,102814.13
2024-05-09T05:25:55.578Z,102818.41
2024-05-09T05:28:22.892Z,102818.38
2024-05-09T05:30:49.756Z,102814.75
2024-05-09T05:33:20.030Z,102810.38
2024-05-09T05:35:47.078Z,102805.03
2024-05-09T05:38:14.494Z,102805.09
2024-05-09T05:40:41.473Z,102808.63
2024-05-09T05:43:17.626Z,102804.09
2024-05-09T05:45:44.750Z,102798.63
2024-05-09T05:48:13.157Z,102797.06
2024-05-09T05:50:40.953Z,102804.31
2024-05-09T05:53:08.880Z,102800.06
2024-05-09T05:55:37.265Z,102801.25
2024-05-09T05:58:04.058Z,102803.84
2024-05-09T06:00:38.100Z,102799.66
2024-05-09T06:03:07.349Z,102794.19
2024-05-09T06:05:35.266Z,102790.94
2024-05-09T06:08:02.050Z,102797.06
2024-05-09T06:10:37.442Z,102795.91
2024-05-09T06:13:06.997Z,102792.28
2024-05-09T06:15:33.727Z,102788.47
2024-05-09T06:18:00.652Z,102790.44
2024-05-09T06:20:34.940Z,102779.97
2024-05-09T06:23:04.778Z,102792.72
2024-05-09T06:25:35.747Z,102790.75
2024-05-09T06:28:02.625Z,102787.63
2024-05-09T06:30:37.890Z,102797.44
2024-05-09T06:33:09.246Z,102783.63
2024-05-09T06:35:37.285Z,102786.53
2024-05-09T06:38:04.521Z,102790.56
2024-05-09T06:40:37.319Z,102790.03
2024-05-09T06:43:11.532Z,102786.91
2024-05-09T06:45:40.718Z,102793.69
2024-05-09T06:48:09.116Z,102790.53
2024-05-09T06:50:38.294Z,102790.47
2024-05-09T06:53:07.333Z,102793.28
2024-05-09T06:55:34.124Z,102793.13
2024-05-09T06:58:00.809Z,102781.78
2024-05-09T07:00:35.296Z,102791.94
2024-05-09T07:03:17.879Z,102778.75
2024-05-09T07:05:47.241Z,102781.22
2024-05-09T07:08:15.314Z,102780.09
2024-05-09T07:10:42.092Z,102783.47
2024-05-09T07:13:13.651Z,102787.44
2024-05-09T07:15:42.711Z,102784.63
2024-05-09T07:18:11.750Z,102779.31
2024-05-09T07:20:40.160Z,102779.00
2024-05-09T07:23:10.449Z,102781.41
2024-05-09T07:25:37.435Z,102782.19
2024-05-09T07:28:04.397Z,102778.16
2024-05-09T07:30:34.167Z,102783.03
2024-05-09T07:33:06.823Z,102778.97
2024-05-09T07:35:33.720Z,102774.44
2024-05-09T07:38:00.555Z,102764.41
2024-05-09T07:40:34.907Z,102764.53
2024-05-09T07:43:04.513Z,102767.69
2024-05-09T07:45:47.982Z,102767.03
2024-05-09T07:52:39.149Z,102754.69
2024-05-09T07:53:50.631Z,102752.16
2024-05-09T07:56:22.421Z,102760.72
2024-05-09T07:58:51.848Z,102764.78
2024-05-09T08:01:20.914Z,102765.69
2024-05-09T08:03:49.369Z,102766.94
2024-05-09T08:06:16.076Z,102765.91
2024-05-09T08:08:42.683Z,102766.34
2024-05-09T08:11:09.321Z,102765.16
2024-05-09T08:13:36.017Z,102765.94
2024-05-09T08:16:04.724Z,102753.78
2024-05-09T08:18:31.726Z,102755.69
2024-05-09T08:21:00.660Z,102747.19
2024-05-09T08:23:28.552Z,102743.34
2024-05-09T08:25:55.202Z,102750.75
2024-05-09T08:28:21.883Z,102745.88
2024-05-09T08:30:48.793Z,102752.50
2024-05-09T08:33:15.687Z,102754.69
2024-05-09T08:35:42.441Z,102753.34
2024-05-09T08:38:09.254Z,102741.66
2024-05-09T08:40:37.771Z,102748.38
2024-05-09T08:43:12.478Z,102758.28
2024-05-09T08:45:44.083Z,102749.03
2024-05-09T08:48:12.479Z,102749.97
2024-05-09T08:50:41.444Z,102748.19
2024-05-09T08:53:09.038Z,102749.41
2024-05-09T08:55:40.318Z,102752.84
2024-05-09T08:58:12.538Z,102748.38
2024-05-09T09:00:41.980Z,102751.03
2024-05-09T09:03:11.525Z,102754.97
2024-05-09T09:05:40.090Z,102756.03
2024-05-09T09:08:10.910Z,102749.59
2024-05-09T09:10:42.206Z,102754.34
2024-05-09T09:13:11.056Z,102740.31
2024-05-09T09:15:48.071Z,102745.81
2024-05-09T09:18:15.495Z,102750.03
2024-05-09T09:20:42.663Z,102745.84
2024-05-09T09:23:09.480Z,102748.44
2024-05-09T09:25:39.833Z,102743.41
2024-05-09T09:28:07.632Z,102738.81
2024-05-09T09:30:37.554Z,102742.97
2024-05-09T09:33:12.105Z,102733.88
2024-05-09T09:35:42.007Z,102735.38
2024-05-09T09:38:10.655Z,102738.28
2024-05-09T09:40:44.795Z,102742.09
2024-05-09T09:43:19.543Z,102733.25
2024-05-09T09:45:49.951Z,102738.13
2024-05-09T09:48:17.323Z,102736.63
2024-05-09T09:50:45.402Z,102735.94
2024-05-09T09:53:13.551Z,102729.63
2024-05-09T09:55:40.522Z,102723.16
2024-05-09T09:58:09.693Z,102730.59
2024-05-09T10:00:42.425Z,102722.72
2024-05-09T10:03:09.452Z,102721.63
2024-05-09T10:05:37.247Z,102721.34
2024-05-09T10:08:08.200Z,102718.78
2024-05-09T10:10:36.042Z,102717.19
2024-05-09T10:13:04.363Z,102711.84
2024-05-09T10:15:52.641Z,102716.28
2024-05-09T10:18:28.204Z,102718.00
2024-05-09T10:20:58.018Z,102707.41
2024-05-09T10:23:29.293Z,102708.81
2024-05-09T10:25:59.938Z,102701.81
2024-05-09T10:28:33.533Z,102710.88
2024-05-09T10:31:10.783Z,102700.81
2024-05-09T10:33:48.717Z,102699.44
2024-05-09T10:36:22.340Z,102705.84
2024-05-09T10:38:49.958Z,102692.75
2024-05-09T10:41:17.700Z,102701.72
2024-05-09T10:43:44.591Z,102694.72
2024-05-09T10:46:11.950Z,102693.63
2024-05-09T10:48:39.764Z,102686.28
2024-05-09T10:51:06.833Z,102681.09
2024-05-09T10:53:43.580Z,102693.63
2024-05-09T10:56:11.048Z,102681.81
2024-05-09T10:58:37.817Z,102684.84
2024-05-09T11:01:07.386Z,102682.19
2024-05-09T11:03:35.504Z,102677.75
2024-05-09T11:06:02.848Z,102676.94
2024-05-09T11:08:31.855Z,102680.50
2024-05-09T11:10:59.597Z,102672.44
2024-05-09T11:13:30.904Z,102678.13
2024-05-09T11:15:59.191Z,102675.41
2024-05-09T11:18:30.416Z,102667.53
2024-05-09T11:20:59.922Z,102669.09
2024-05-09T11:23:30.109Z,102663.38
2024-05-09T11:25:59.692Z,102660.03
2024-05-09T11:28:28.804Z,102660.25
2024-05-09T11:31:07.242Z,102649.53
2024-05-09T11:33:39.926Z,102650.28
2024-05-09T11:36:08.028Z,102649.44
2024-05-09T11:38:35.075Z,102649.31
2024-05-09T11:41:02.538Z,102647.97
2024-05-09T11:43:29.270Z,102650.88
2024-05-09T11:45:59.268Z,102643.59
2024-05-09T11:48:26.782Z,102640.91
2024-05-09T11:50:55.760Z,102650.97
2024-05-09T11:53:22.695Z,102645.59
2024-05-09T11:55:49.547Z,102644.06
2024-05-09T11:58:18.102Z,102640.34
2024-05-09T12:00:45.832Z,102639.78
2024-05-09T12:03:14.011Z,102633.34
2024-05-09T12:05:41.088Z,102630.06
2024-05-09T12:08:08.063Z,102634.19
2024-05-09T12:10:36.468Z,102625.06
2024-05-09T12:13:05.990Z,102621.13
2024-05-09T12:15:37.018Z,102621.00
2024-05-09T12:18:04.981Z,102625.44
2024-05-09T12:20:37.430Z,102621.38
2024-05-09T12:23:07.884Z,102619.69
2024-05-09T12:25:36.922Z,102617.78
2024-05-09T12:28:04.145Z,102615.94
2024-05-09T12:30:36.774Z,102608.53
2024-05-09T12:33:11.961Z,102611.03
2024-05-09T12:35:39.653Z,102607.66
2024-05-09T12:38:06.334Z,102600.41
2024-05-09T12:40:38.343Z,102601.00
2024-05-09T12:43:08.466Z,102599.69
2024-05-09T12:45:36.562Z,102602.84
2024-05-09T12:48:04.637Z,102594.31
2024-05-09T12:50:33.528Z,102598.34
2024-05-09T12:53:03.880Z,102595.34
2024-05-09T12:55:37.704Z,102595.84
2024-05-09T12:58:11.982Z,102590.94
2024-05-09T13:00:39.085Z,102587.06
2024-05-09T13:03:06.263Z,102586.91
2024-05-09T13:05:33.043Z,102579.50
2024-05-09T13:08:00.750Z,102579.22
2024-05-09T13:10:32.111Z,102575.06
2024-05-09T13:13:02.514Z,102585.31
2024-05-09T13:15:34.616Z,102583.16
2024-05-09T13:18:03.224Z,102578.44
2024-05-09T13:20:34.281Z,102576.28
2024-05-09T13:23:04.545Z,102574.19
2024-05-09T13:25:31.826Z,102571.16
2024-05-09T13:27:58.614Z,102577.50
2024-05-09T13:30:38.268Z,102574.50
2024-05-09T13:33:09.098Z,102586.66
2024-05-09T13:35:37.380Z,102581.66
2024-05-09T13:38:04.886Z,102582.22
2024-05-09T13:40:34.806Z,102581.53
2024-05-09T13:43:06.400Z,102575.28
2024-05-09T13:45:33.951Z,102578.19
2024-05-09T13:48:02.346Z,102576.53
2024-05-09T13:50:35.894Z,102587.41
2024-05-09T13:53:08.359Z,102581.22
2024-05-09T13:55:40.920Z,102582.38
2024-05-09T13:58:10.906Z,102574.00
2024-05-09T14:00:47.154Z,102569.97
2024-05-09T14:03:18.417Z,102568.63
2024-05-09T14:05:47.474Z,102567.78
2024-05-09T14:08:15.965Z,102564.22
2024-05-09T14:10:46.387Z,102564.97
2024-05-09T14:13:16.124Z,102560.66
2024-05-09T14:15:42.984Z,102556.34
2024-05-09T14:18:12.551Z,102558.38
2024-05-09T14:20:40.823Z,102566.03
2024-05-09T14:23:08.503Z,102556.72
2024-05-09T14:25:38.883Z,102559.78
2024-05-09T14:28:08.375Z,102559.41
2024-05-09T14:30:37.815Z,102549.22
2024-05-09T14:33:07.102Z,102549.63
2024-05-09T14:35:34.720Z,102547.63
2024-05-09T14:38:01.930Z,102541.19
2024-05-09T14:43:01.055Z,102537.16
2024-05-09T14:45:29.435Z,102538.03
2024-05-09T14:47:56.819Z,102534.97
2024-05-09T14:50:31.701Z,102536.38
2024-05-09T14:53:01.873Z,102528.56
2024-05-09T14:55:28.513Z,102532.69
2024-05-09T14:57:55.581Z,102525.88
2024-05-09T15:00:29.015Z,102529.25
2024-05-09T15:03:00.545Z,102518.69
2024-05-09T15:05:27.606Z,102522.78
2024-05-09T15:07:54.361Z,102517.56
2024-05-09T15:10:27.377Z,102514.84
2024-05-09T15:13:01.147Z,102503.75
2024-05-09T15:15:27.873Z,102508.75
2024-05-09T15:17:55.202Z,102503.13
2024-05-09T15:20:30.807Z,102518.50
2024-05-09T15:23:02.182Z,102505.25
2024-05-09T15:25:29.029Z,102503.50
2024-05-09T15:27:55.900Z,102500.44
2024-05-09T15:32:52.332Z,102491.91
2024-05-09T15:35:20.196Z,102490.00
2024-05-09T15:37:48.391Z,102489.28
2024-05-09T15:40:22.266Z,102484.34
2024-05-09T15:42:57.815Z,102490.28
2024-05-09T15:45:24.492Z,102487.28
2024-05-09T15:47:51.237Z,102488.63
2024-05-09T15:50:28.114Z,102491.00
2024-05-09T15:53:02.533Z,102483.00
2024-05-09T15:55:36.022Z,102473.16
2024-05-09T15:58:04.306Z,102476.66
2024-05-09T16:00:38.020Z,102474.63
2024-05-09T16:03:09.999Z,102466.63
2024-05-09T16:05:37.465Z,102471.81
2024-05-09T16:08:05.528Z,102468.00
2024-05-09T16:10:34.109Z,102466.81
2024-05-09T16:13:02.660Z,102462.19
2024-05-09T16:15:30.280Z,102459.59
2024-05-09T16:17:57.178Z,102458.06
2024-05-09T16:22:56.751Z,102454.44
2024-05-09T16:25:23.454Z,102451.81
2024-05-09T16:27:51.259Z,102455.69
2024-05-09T16:30:24.844Z,102460.59
2024-05-09T16:32:58.375Z,102460.09
2024-05-09T16:35:25.156Z,102444.78
2024-05-09T16:37:51.796Z,102451.31
2024-05-09T16:40:25.684Z,102447.91
2024-05-09T16:43:03.426Z,102442.94
2024-05-09T16:45:30.363Z,102435.53
2024-05-09T16:47:57.488Z,102437.91
2024-05-09T16:50:29.446Z,102427.84
2024-05-09T16:53:00.223Z,102427.75
2024-05-09T16:55:27.223Z,102432.44
2024-05-09T16:57:54.997Z,102435.22
2024-05-09T17:00:34.787Z,102426.03
2024-05-09T17:03:07.928Z,102433.06
2024-05-09T17:05:35.737Z,102436.41
2024-05-09T17:08:03.134Z,102433.47
2024-05-09T17:10:33.522Z,102427.47
2024-05-09T17:13:02.391Z,102438.47
2024-05-09T17:15:29.595Z,102440.69
2024-05-09T17:17:56.597Z,102432.91
2024-05-09T17:20:31.274Z,102437.41
2024-05-09T17:23:02.438Z,102434.22
2024-05-09T17:25:29.418Z,102433.44
2024-05-09T17:27:56.674Z,102430.47
2024-05-09T17:30:31.638Z,102431.94
2024-05-09T17:33:02.299Z,102432.56
2024-05-09T17:35:29.954Z,102430.38
2024-05-09T17:37:56.949Z,102423.38
2024-05-09T17:42:53.326Z,102428.06
2024-05-09T17:45:20.643Z,102424.91
2024-05-09T17:47:47.715Z,102424.44
2024-05-09T17:50:21.011Z,102425.84
2024-05-09T17:52:53.762Z,102417.59
2024-05-09T17:55:21.306Z,102426.09
2024-05-09T17:57:48.176Z,102424.03
2024-05-09T18:00:24.792Z,102424.25
2024-05-09T18:03:00.804Z,102422.03
2024-05-09T18:05:29.095Z,102425.91
2024-05-09T18:07:57.029Z,102429.28
2024-05-09T18:10:32.802Z,102426.75
2024-05-09T18:13:03.747Z,102433.41
2024-05-09T18:15:30.670Z,102418.97
2024-05-09T18:17:57.818Z,102440.19
2024-05-09T18:20:33.106Z,102432.34
2024-05-09T18:23:08.064Z,102430.53
2024-05-09T18:25:35.047Z,102439.00
2024-05-09T18:28:03.183Z,102440.81
2024-05-09T18:30:34.822Z,102436.25
2024-05-09T18:33:07.646Z,102429.84
2024-05-09T18:35:35.231Z,102435.41
2024-05-09T18:38:02.269Z,102429.59
2024-05-09T18:40:34.343Z,102431.56
2024-05-09T18:43:05.847Z,102437.44
2024-05-09T18:45:34.037Z,102429.47
2024-05-09T18:48:01.236Z,102426.09
2024-05-09T18:50:34.540Z,102437.75
2024-05-09T18:53:08.949Z,102440.72
2024-05-09T18:55:39.638Z,102440.81
2024-05-09T18:58:06.888Z,102443.56
2024-05-09T19:00:37.312Z,102448.38
2024-05-09T19:03:09.629Z,102432.56
2024-05-09T19:05:38.860Z,102448.09
2024-05-09T19:08:06.316Z,102444.09
2024-05-09T19:10:35.036Z,102437.22
2024-05-09T19:13:09.063Z,102437.47
2024-05-09T19:15:39.488Z,102445.59
2024-05-09T19:18:07.043Z,102446.75
2024-05-09T19:20:35.762Z,102446.22
2024-05-09T19:23:04.713Z,102448.25
2024-05-09T19:25:32.117Z,102446.69
2024-05-09T19:28:01.639Z,102451.47
2024-05-09T19:30:38.578Z,102458.00
2024-05-09T19:33:08.921Z,102452.00
2024-05-09T19:35:35.955Z,102452.25
2024-05-09T19:38:02.962Z,102446.44
2024-05-09T19:40:32.360Z,102447.69
2024-05-09T19:43:05.465Z,102448.13
2024-05-09T19:45:34.106Z,102450.53
2024-05-09T19:48:01.960Z,102449.31
2024-05-09T19:50:37.059Z,102454.00
2024-05-09T19:53:09.236Z,102448.88
2024-05-09T19:55:36.116Z,102450.06
2024-05-09T19:58:05.306Z,102451.13
2024-05-09T20:00:39.901Z,102455.00
2024-05-09T20:03:09.656Z,102453.00
2024-05-09T20:05:37.607Z,102453.97
2024-05-09T20:08:05.266Z,102451.31
2024-05-09T20:10:34.277Z,102458.59
2024-05-09T20:13:02.859Z,102451.00
2024-05-09T20:15:30.107Z,102444.00
2024-05-09T20:17:59.807Z,102456.50
2024-05-09T20:20:33.587Z,102453.06
2024-05-09T20:23:05.458Z,102457.69
2024-05-09T20:25:32.102Z,102462.28
2024-05-09T20:27:58.859Z,102459.88
2024-05-09T20:30:31.694Z,102459.97
2024-05-09T20:33:00.574Z,102464.75
2024-05-09T20:35:30.457Z,102461.44
2024-05-09T20:37:57.209Z,102464.44
2024-05-09T20:40:29.247Z,102465.91
2024-05-09T20:43:00.354Z,102472.34
2024-05-09T20:45:27.235Z,102470.59
2024-05-09T20:47:54.187Z,102473.47
2024-05-09T20:50:29.012Z,102472.13
2024-05-09T20:53:03.731Z,102474.09
2024-05-09T20:55:30.550Z,102475.34
2024-05-09T20:57:57.858Z,102475.53
2024-05-09T21:00:34.369Z,102474.94
2024-05-09T21:03:06.815Z,102481.25
2024-05-09T21:05:34.624Z,102468.13
2024-05-09T21:08:01.787Z,102469.13
2024-05-09T21:10:32.712Z,102467.59
2024-05-09T21:13:01.042Z,102473.28
2024-05-09T21:15:35.978Z,102471.63
2024-05-09T21:18:03.235Z,102472.84
2024-05-09T21:20:32.788Z,102471.22
2024-05-09T21:23:02.018Z,102470.66
2024-05-09T21:25:29.340Z,102470.44
2024-05-09T21:27:56.084Z,102474.13
2024-05-09T21:30:32.422Z,102472.59
2024-05-09T21:33:08.608Z,102468.22
2024-05-09T21:35:35.996Z,102469.47
2024-05-09T21:38:02.692Z,102459.09
2024-05-09T21:40:34.331Z,102460.91
2024-05-09T21:43:05.611Z,102463.75
2024-05-09T21:45:33.075Z,102465.53
2024-05-09T21:47:59.958Z,102470.06
2024-05-09T21:50:35.461Z,102468.31
2024-05-09T21:53:06.704Z,102466.63
2024-05-09T21:55:33.825Z,102462.53
2024-05-09T21:58:00.695Z,102468.63
2024-05-09T22:00:34.773Z,102458.88
2024-05-09T22:03:05.144Z,102460.03
2024-05-09T22:05:32.410Z,102464.47
2024-05-09T22:07:59.116Z,102467.72
2024-05-09T22:10:33.768Z,102456.91
2024-05-09T22:13:02.921Z,102466.72
2024-05-09T22:15:29.604Z,102469.47
2024-05-09T22:17:57.257Z,102459.78
2024-05-09T22:20:33.111Z,102464.31
2024-05-09T22:23:04.233Z,102461.84
2024-05-09T22:25:32.296Z,102459.25
2024-05-09T22:28:00.135Z,102461.94
2024-05-09T22:30:34.642Z,102463.97
2024-05-09T22:33:05.873Z,102460.34
2024-05-09T22:35:32.923Z,102467.97
2024-05-09T22:37:59.817Z,102462.19
2024-05-09T22:40:38.167Z,102466.00
2024-05-09T22:43:13.033Z,102461.59
2024-05-09T22:45:39.855Z,102468.47
2024-05-09T22:48:07.986Z,102468.53
2024-05-09T22:50:34.903Z,102466.28
2024-05-09T22:53:01.655Z,102472.50
2024-05-09T22:55:28.365Z,102466.41
2024-05-09T22:57:55.100Z,102470.78
2024-05-09T23:00:30.758Z,102467.25
2024-05-09T23:03:00.036Z,102467.41
2024-05-09T23:05:27.065Z,102462.91
2024-05-09T23:07:53.815Z,102464.75
2024-05-09T23:10:27.765Z,102472.69
2024-05-09T23:12:59.195Z,102470.28
2024-05-09T23:15:26.901Z,102471.56
2024-05-09T23:17:53.659Z,102474.13
2024-05-09T23:20:29.926Z,102467.00
2024-05-09T23:23:03.618Z,102465.25
2024-05-09T23:25:30.309Z,102462.75
2024-05-09T23:27:57.149Z,102460.38
2024-05-09T23:30:33.332Z,102461.31
2024-05-09T23:33:05.335Z,102464.00
2024-05-09T23:35:32.290Z,102458.72
2024-05-09T23:37:58.871Z,102454.38
2024-05-09T23:40:36.870Z,102455.47
2024-05-09T23:43:07.397Z,102457.47
2024-05-09T23:45:34.587Z,102456.69
2024-05-09T23:48:01.707Z,102456.94
2024-05-09T23:50:35.508Z,102455.34
2024-05-09T23:53:05.697Z,102453.53
2024-05-09T23:55:32.975Z,102453.97
2024-05-09T23:58:00.218Z,102455.16
